sensor_id;sensor_type;location;lat;lon;timestamp;temperature;humidity
4308;DHT22;2167;53.448;9.984;2024-03-23T00:53:49;8.10;1.00
4308;DHT22;2167;53.448;9.984;2024-03-23T00:56:14;8.10;1.00
4308;DHT22;2167;53.448;9.984;2024-03-23T00:58:40;8.00;1.00
4308;DHT22;2167;53.448;9.984;2024-03-23T01:01:06;8.00;1.00
4308;DHT22;2167;53.448;9.984;2024-03-23T01:03:31;8.10;1.00
4308;DHT22;2167;53.448;9.984;2024-03-23T01:06:01;8.00;1.00
4308;DHT22;2167;53.448;9.984;2024-03-23T01:08:27;8.00;1.00
4308;DHT22;2167;53.448;9.984;2024-03-23T01:10:56;7.90;1.00
4308;DHT22;2167;53.448;9.984;2024-03-23T01:13:22;7.90;1.00
4308;DHT22;2167;53.448;9.984;2024-03-23T01:15:49;7.90;1.00
4308;DHT22;2167;53.448;9.984;2024-03-23T01:18:14;7.90;1.00
4308;DHT22;2167;53.448;9.984;2024-03-23T01:20:40;7.90;1.00
4308;DHT22;2167;53.448;9.984;2024-03-23T01:23:05;7.90;1.00
4308;DHT22;2167;53.448;9.984;2024-03-23T01:25:31;7.80;1.00
4308;DHT22;2167;53.448;9.984;2024-03-23T01:27:56;7.80;1.00
4308;DHT22;2167;53.448;9.984;2024-03-23T01:30:22;7.80;1.00
4308;DHT22;2167;53.448;9.984;2024-03-23T01:32:47;7.80;1.00
4308;DHT22;2167;53.448;9.984;2024-03-23T01:35:13;7.70;1.00
4308;DHT22;2167;53.448;9.984;2024-03-23T01:37:38;7.70;1.00
4308;DHT22;2167;53.448;9.984;2024-03-23T01:40:04;7.70;1.00
4308;DHT22;2167;53.448;9.984;2024-03-23T01:42:30;7.70;1.00
4308;DHT22;2167;53.448;9.984;2024-03-23T01:44:55;7.70;1.00
4308;DHT22;2167;53.448;9.984;2024-03-23T01:47:21;7.60;1.00
4308;DHT22;2167;53.448;9.984;2024-03-23T01:49:47;7.60;1.00
4308;DHT22;2167;53.448;9.984;2024-03-23T01:55:49;7.60;1.00
4308;DHT22;2167;53.448;9.984;2024-03-23T02:02:12;7.60;1.00
4308;DHT22;2167;53.448;9.984;2024-03-23T02:05:34;7.50;1.00
4308;DHT22;2167;53.448;9.984;2024-03-23T02:08:47;7.50;1.00
4308;DHT22;2167;53.448;9.984;2024-03-23T02:15:59;7.40;1.10
4308;DHT22;2167;53.448;9.984;2024-03-23T02:22:04;7.40;2.20
4308;DHT22;2167;53.448;9.984;2024-03-23T02:24:32;7.40;1.80
4308;DHT22;2167;53.448;9.984;2024-03-23T02:27:08;7.40;1.50
4308;DHT22;2167;53.448;9.984;2024-03-23T02:33:21;7.40;1.00
4308;DHT22;2167;53.448;9.984;2024-03-23T02:42:59;7.30;1.10
4308;DHT22;2167;53.448;9.984;2024-03-23T03:07:30;7.20;1.30
4308;DHT22;2167;53.448;9.984;2024-03-23T03:09:56;7.20;1.20
4308;DHT22;2167;53.448;9.984;2024-03-23T03:12:21;7.20;1.10
4308;DHT22;2167;53.448;9.984;2024-03-23T03:14:47;7.20;1.20
4308;DHT22;2167;53.448;9.984;2024-03-23T03:17:13;7.10;1.60
4308;DHT22;2167;53.448;9.984;2024-03-23T03:19:40;7.10;2.00
4308;DHT22;2167;53.448;9.984;2024-03-23T03:22:06;7.20;1.80
4308;DHT22;2167;53.448;9.984;2024-03-23T03:24:31;7.20;1.50
4308;DHT22;2167;53.448;9.984;2024-03-23T03:26:57;7.10;1.80
4308;DHT22;2167;53.448;9.984;2024-03-23T03:29:24;7.10;2.00
4308;DHT22;2167;53.448;9.984;2024-03-23T03:31:49;7.10;1.90
4308;DHT22;2167;53.448;9.984;2024-03-23T03:34:15;7.20;1.30
4308;DHT22;2167;53.448;9.984;2024-03-23T03:36:41;7.10;1.00
4308;DHT22;2167;53.448;9.984;2024-03-23T03:39:07;7.10;1.00
4308;DHT22;2167;53.448;9.984;2024-03-23T03:41:32;7.10;1.20
4308;DHT22;2167;53.448;9.984;2024-03-23T03:43:58;7.20;1.00
4308;DHT22;2167;53.448;9.984;2024-03-23T03:46:28;7.10;1.00
4308;DHT22;2167;53.448;9.984;2024-03-23T03:48:54;7.20;1.00
4308;DHT22;2167;53.448;9.984;2024-03-23T03:51:20;7.20;1.00
4308;DHT22;2167;53.448;9.984;2024-03-23T03:53:46;7.20;1.00
4308;DHT22;2167;53.448;9.984;2024-03-23T03:56:11;7.20;1.00
4308;DHT22;2167;53.448;9.984;2024-03-23T03:58:37;7.20;1.00
4308;DHT22;2167;53.448;9.984;2024-03-23T04:01:03;7.20;1.00
4308;DHT22;2167;53.448;9.984;2024-03-23T04:03:28;7.20;1.00
4308;DHT22;2167;53.448;9.984;2024-03-23T04:05:54;7.20;1.00
4308;DHT22;2167;53.448;9.984;2024-03-23T04:08:20;7.20;1.00
4308;DHT22;2167;53.448;9.984;2024-03-23T04:10:46;7.10;1.00
4308;DHT22;2167;53.448;9.984;2024-03-23T04:13:12;7.10;1.00
4308;DHT22;2167;53.448;9.984;2024-03-23T04:15:38;7.10;1.00
4308;DHT22;2167;53.448;9.984;2024-03-23T04:18:04;7.20;1.00
4308;DHT22;2167;53.448;9.984;2024-03-23T04:20:32;7.20;1.00
4308;DHT22;2167;53.448;9.984;2024-03-23T04:23:01;7.20;1.00
4308;DHT22;2167;53.448;9.984;2024-03-23T04:25:26;7.20;1.00
4308;DHT22;2167;53.448;9.984;2024-03-23T04:27:52;7.10;1.00
4308;DHT22;2167;53.448;9.984;2024-03-23T04:30:17;7.10;1.00
4308;DHT22;2167;53.448;9.984;2024-03-23T04:32:44;7.20;1.00
4308;DHT22;2167;53.448;9.984;2024-03-23T04:35:10;7.10;1.00
4308;DHT22;2167;53.448;9.984;2024-03-23T04:37:36;7.00;1.00
4308;DHT22;2167;53.448;9.984;2024-03-23T04:40:03;7.00;1.00
4308;DHT22;2167;53.448;9.984;2024-03-23T04:42:29;7.00;1.00
4308;DHT22;2167;53.448;9.984;2024-03-23T04:44:55;7.00;1.00
4308;DHT22;2167;53.448;9.984;2024-03-23T04:47:20;6.90;1.00
4308;DHT22;2167;53.448;9.984;2024-03-23T04:49:48;6.90;1.00
4308;DHT22;2167;53.448;9.984;2024-03-23T04:52:13;6.90;1.00
4308;DHT22;2167;53.448;9.984;2024-03-23T04:54:41;6.90;1.00
4308;DHT22;2167;53.448;9.984;2024-03-23T04:57:07;6.90;1.00
4308;DHT22;2167;53.448;9.984;2024-03-23T04:59:32;7.00;1.00
4308;DHT22;2167;53.448;9.984;2024-03-23T05:01:58;7.00;1.00
4308;DHT22;2167;53.448;9.984;2024-03-23T05:04:25;7.00;1.00
4308;DHT22;2167;53.448;9.984;2024-03-23T05:06:50;6.90;1.00
4308;DHT22;2167;53.448;9.984;2024-03-23T05:09:16;7.00;1.00
4308;DHT22;2167;53.448;9.984;2024-03-23T05:11:42;7.00;1.00
4308;DHT22;2167;53.448;9.984;2024-03-23T05:14:07;7.00;1.00
4308;DHT22;2167;53.448;9.984;2024-03-23T05:16:33;6.90;1.00
4308;DHT22;2167;53.448;9.984;2024-03-23T05:18:59;6.90;1.00
4308;DHT22;2167;53.448;9.984;2024-03-23T05:21:25;6.90;1.00
4308;DHT22;2167;53.448;9.984;2024-03-23T05:23:53;6.80;1.00
4308;DHT22;2167;53.448;9.984;2024-03-23T05:26:19;6.80;1.00
4308;DHT22;2167;53.448;9.984;2024-03-23T05:28:44;6.80;1.00
4308;DHT22;2167;53.448;9.984;2024-03-23T05:31:10;6.80;1.00
4308;DHT22;2167;53.448;9.984;2024-03-23T05:33:36;6.80;1.00
4308;DHT22;2167;53.448;9.984;2024-03-23T05:36:05;6.80;1.00
4308;DHT22;2167;53.448;9.984;2024-03-23T05:38:31;6.80;1.00
4308;DHT22;2167;53.448;9.984;2024-03-23T05:41:00;6.90;1.00
4308;DHT22;2167;53.448;9.984;2024-03-23T05:43:26;6.90;1.00
4308;DHT22;2167;53.448;9.984;2024-03-23T05:45:56;6.90;1.00
4308;DHT22;2167;53.448;9.984;2024-03-23T05:48:22;6.90;1.00
4308;DHT22;2167;53.448;9.984;2024-03-23T05:50:48;6.80;1.00
4308;DHT22;2167;53.448;9.984;2024-03-23T05:53:18;6.80;1.00
4308;DHT22;2167;53.448;9.984;2024-03-23T05:55:43;6.70;1.00
4308;DHT22;2167;53.448;9.984;2024-03-23T05:58:09;6.80;1.00
4308;DHT22;2167;53.448;9.984;2024-03-23T06:00:35;6.80;1.00
4308;DHT22;2167;53.448;9.984;2024-03-23T06:03:01;6.70;1.00
4308;DHT22;2167;53.448;9.984;2024-03-23T06:05:27;6.80;1.00
4308;DHT22;2167;53.448;9.984;2024-03-23T06:07:54;6.80;1.00
4308;DHT22;2167;53.448;9.984;2024-03-23T06:10:19;6.70;1.00
4308;DHT22;2167;53.448;9.984;2024-03-23T06:12:48;6.70;1.00
4308;DHT22;2167;53.448;9.984;2024-03-23T06:15:14;6.80;1.00
4308;DHT22;2167;53.448;9.984;2024-03-23T06:17:40;6.70;1.00
4308;DHT22;2167;53.448;9.984;2024-03-23T06:20:06;6.80;1.00
4308;DHT22;2167;53.448;9.984;2024-03-23T06:22:32;6.80;1.00
4308;DHT22;2167;53.448;9.984;2024-03-23T06:24:59;6.80;1.00
4308;DHT22;2167;53.448;9.984;2024-03-23T06:27:24;6.80;1.00
4308;DHT22;2167;53.448;9.984;2024-03-23T06:29:54;6.80;1.00
4308;DHT22;2167;53.448;9.984;2024-03-23T06:32:20;6.90;1.00
4308;DHT22;2167;53.448;9.984;2024-03-23T06:34:46;6.90;1.00
4308;DHT22;2167;53.448;9.984;2024-03-23T06:37:12;6.90;1.00
4308;DHT22;2167;53.448;9.984;2024-03-23T06:39:38;6.90;1.00
4308;DHT22;2167;53.448;9.984;2024-03-23T06:42:04;7.00;1.00
4308;DHT22;2167;53.448;9.984;2024-03-23T06:44:29;7.00;1.00
4308;DHT22;2167;53.448;9.984;2024-03-23T06:46:56;7.10;1.00
4308;DHT22;2167;53.448;9.984;2024-03-23T06:49:23;7.10;1.00
4308;DHT22;2167;53.448;9.984;2024-03-23T06:51:49;7.10;1.00
4308;DHT22;2167;53.448;9.984;2024-03-23T06:54:14;7.20;1.00
4308;DHT22;2167;53.448;9.984;2024-03-23T06:56:40;7.30;1.00
4308;DHT22;2167;53.448;9.984;2024-03-23T06:59:06;7.30;1.00
4308;DHT22;2167;53.448;9.984;2024-03-23T07:01:32;7.30;1.00
4308;DHT22;2167;53.448;9.984;2024-03-23T07:03:57;7.30;1.00
4308;DHT22;2167;53.448;9.984;2024-03-23T07:06:23;7.30;1.00
4308;DHT22;2167;53.448;9.984;2024-03-23T07:08:48;7.30;1.00
4308;DHT22;2167;53.448;9.984;2024-03-23T07:11:24;7.30;1.00
4308;DHT22;2167;53.448;9.984;2024-03-23T07:13:50;7.30;1.00
4308;DHT22;2167;53.448;9.984;2024-03-23T07:16:20;7.20;1.00
4308;DHT22;2167;53.448;9.984;2024-03-23T07:18:46;7.30;1.00
4308;DHT22;2167;53.448;9.984;2024-03-23T07:21:11;7.30;1.00
4308;DHT22;2167;53.448;9.984;2024-03-23T07:23:37;7.40;1.00
4308;DHT22;2167;53.448;9.984;2024-03-23T07:26:04;7.40;1.00
4308;DHT22;2167;53.448;9.984;2024-03-23T07:28:31;7.40;1.00
4308;DHT22;2167;53.448;9.984;2024-03-23T07:31:07;7.40;1.00
4308;DHT22;2167;53.448;9.984;2024-03-23T07:33:46;7.40;1.00
4308;DHT22;2167;53.448;9.984;2024-03-23T07:36:12;7.50;1.00
4308;DHT22;2167;53.448;9.984;2024-03-23T07:38:41;7.50;1.00
4308;DHT22;2167;53.448;9.984;2024-03-23T07:41:08;7.40;1.00
4308;DHT22;2167;53.448;9.984;2024-03-23T07:43:35;7.50;1.00
4308;DHT22;2167;53.448;9.984;2024-03-23T07:46:01;7.50;1.00
4308;DHT22;2167;53.448;9.984;2024-03-23T07:48:28;7.60;1.00
4308;DHT22;2167;53.448;9.984;2024-03-23T07:51:05;7.70;1.00
4308;DHT22;2167;53.448;9.984;2024-03-23T07:53:32;7.70;1.00
4308;DHT22;2167;53.448;9.984;2024-03-23T07:56:08;7.80;1.00
4308;DHT22;2167;53.448;9.984;2024-03-23T07:58:35;7.90;1.00
4308;DHT22;2167;53.448;9.984;2024-03-23T08:01:13;7.90;1.00
4308;DHT22;2167;53.448;9.984;2024-03-23T08:03:41;8.00;1.00
4308;DHT22;2167;53.448;9.984;2024-03-23T08:08:32;8.10;1.00
4308;DHT22;2167;53.448;9.984;2024-03-23T08:10:58;8.20;1.00
4308;DHT22;2167;53.448;9.984;2024-03-23T08:13:23;8.40;1.00
4308;DHT22;2167;53.448;9.984;2024-03-23T08:15:49;8.50;1.00
4308;DHT22;2167;53.448;9.984;2024-03-23T08:18:14;8.60;1.00
4308;DHT22;2167;53.448;9.984;2024-03-23T08:20:41;8.60;1.00
4308;DHT22;2167;53.448;9.984;2024-03-23T08:23:07;8.70;1.00
4308;DHT22;2167;53.448;9.984;2024-03-23T08:25:33;8.70;1.00
4308;DHT22;2167;53.448;9.984;2024-03-23T08:28:00;8.80;1.00
4308;DHT22;2167;53.448;9.984;2024-03-23T08:30:25;8.90;1.00
4308;DHT22;2167;53.448;9.984;2024-03-23T08:32:51;8.90;1.00
4308;DHT22;2167;53.448;9.984;2024-03-23T08:35:17;9.00;1.00
4308;DHT22;2167;53.448;9.984;2024-03-23T08:37:43;9.10;1.00
4308;DHT22;2167;53.448;9.984;2024-03-23T08:40:09;9.20;1.00
4308;DHT22;2167;53.448;9.984;2024-03-23T08:42:35;9.20;1.00
4308;DHT22;2167;53.448;9.984;2024-03-23T08:45:00;9.30;1.00
4308;DHT22;2167;53.448;9.984;2024-03-23T08:47:26;9.40;1.00
4308;DHT22;2167;53.448;9.984;2024-03-23T08:49:51;9.40;1.00
4308;DHT22;2167;53.448;9.984;2024-03-23T08:52:17;9.60;1.00
4308;DHT22;2167;53.448;9.984;2024-03-23T08:54:43;9.70;1.00
4308;DHT22;2167;53.448;9.984;2024-03-23T08:57:09;9.80;1.00
4308;DHT22;2167;53.448;9.984;2024-03-23T08:59:34;9.80;1.00
4308;DHT22;2167;53.448;9.984;2024-03-23T09:02:00;9.80;1.00
4308;DHT22;2167;53.448;9.984;2024-03-23T09:04:26;9.80;1.00
4308;DHT22;2167;53.448;9.984;2024-03-23T09:06:51;10.00;1.00
4308;DHT22;2167;53.448;9.984;2024-03-23T09:09:17;10.00;1.00
4308;DHT22;2167;53.448;9.984;2024-03-23T09:11:44;10.10;1.00
4308;DHT22;2167;53.448;9.984;2024-03-23T09:14:10;10.20;1.00
4308;DHT22;2167;53.448;9.984;2024-03-23T09:16:36;10.20;1.00
4308;DHT22;2167;53.448;9.984;2024-03-23T09:19:01;10.30;1.00
4308;DHT22;2167;53.448;9.984;2024-03-23T09:21:27;10.40;1.00
4308;DHT22;2167;53.448;9.984;2024-03-23T09:23:52;10.50;1.00
4308;DHT22;2167;53.448;9.984;2024-03-23T09:26:18;10.60;1.00
4308;DHT22;2167;53.448;9.984;2024-03-23T09:28:43;10.50;1.00
4308;DHT22;2167;53.448;9.984;2024-03-23T09:31:09;10.40;1.00
4308;DHT22;2167;53.448;9.984;2024-03-23T09:33:39;10.30;1.00
4308;DHT22;2167;53.448;9.984;2024-03-23T09:36:05;10.20;1.00
4308;DHT22;2167;53.448;9.984;2024-03-23T09:38:31;10.20;1.00
4308;DHT22;2167;53.448;9.984;2024-03-23T09:40:57;10.30;1.00
4308;DHT22;2167;53.448;9.984;2024-03-23T09:43:23;10.50;1.00
4308;DHT22;2167;53.448;9.984;2024-03-23T09:45:49;10.80;1.00
4308;DHT22;2167;53.448;9.984;2024-03-23T09:48:15;11.10;1.00
4308;DHT22;2167;53.448;9.984;2024-03-23T09:50:44;11.20;1.00
4308;DHT22;2167;53.448;9.984;2024-03-23T09:53:12;11.40;1.00
4308;DHT22;2167;53.448;9.984;2024-03-23T09:55:42;11.70;1.00
4308;DHT22;2167;53.448;9.984;2024-03-23T09:58:12;11.90;1.00
4308;DHT22;2167;53.448;9.984;2024-03-23T10:00:39;12.00;1.00
4308;DHT22;2167;53.448;9.984;2024-03-23T10:03:04;11.70;1.00
4308;DHT22;2167;53.448;9.984;2024-03-23T10:05:32;11.50;1.00
4308;DHT22;2167;53.448;9.984;2024-03-23T10:08:00;11.20;1.00
4308;DHT22;2167;53.448;9.984;2024-03-23T10:10:26;11.00;1.00
4308;DHT22;2167;53.448;9.984;2024-03-23T10:12:52;10.80;1.00
4308;DHT22;2167;53.448;9.984;2024-03-23T10:15:25;10.70;1.00
4308;DHT22;2167;53.448;9.984;2024-03-23T10:17:51;10.60;1.00
4308;DHT22;2167;53.448;9.984;2024-03-23T10:20:21;10.60;1.00
4308;DHT22;2167;53.448;9.984;2024-03-23T10:22:48;10.70;1.00
4308;DHT22;2167;53.448;9.984;2024-03-23T10:25:15;10.90;1.00
4308;DHT22;2167;53.448;9.984;2024-03-23T10:27:41;11.10;1.00
4308;DHT22;2167;53.448;9.984;2024-03-23T10:30:10;11.30;1.00
4308;DHT22;2167;53.448;9.984;2024-03-23T10:32:36;11.50;1.00
4308;DHT22;2167;53.448;9.984;2024-03-23T10:35:19;11.60;1.00
4308;DHT22;2167;53.448;9.984;2024-03-23T10:37:45;11.70;1.00
4308;DHT22;2167;53.448;9.984;2024-03-23T10:40:17;11.90;1.00
4308;DHT22;2167;53.448;9.984;2024-03-23T10:42:44;12.10;1.00
4308;DHT22;2167;53.448;9.984;2024-03-23T10:45:10;12.40;1.00
4308;DHT22;2167;53.448;9.984;2024-03-23T10:47:37;12.50;1.00
4308;DHT22;2167;53.448;9.984;2024-03-23T10:50:04;12.50;1.00
4308;DHT22;2167;53.448;9.984;2024-03-23T10:52:32;12.50;1.00
4308;DHT22;2167;53.448;9.984;2024-03-23T10:54:59;12.60;1.00
4308;DHT22;2167;53.448;9.984;2024-03-23T10:57:40;12.60;1.00
4308;DHT22;2167;53.448;9.984;2024-03-23T11:00:07;12.60;1.00
4308;DHT22;2167;53.448;9.984;2024-03-23T11:02:33;12.30;1.00
4308;DHT22;2167;53.448;9.984;2024-03-23T11:15:55;10.80;1.00
4308;DHT22;2167;53.448;9.984;2024-03-23T11:18:49;10.60;1.00
4308;DHT22;2167;53.448;9.984;2024-03-23T11:21:51;10.50;1.00
4308;DHT22;2167;53.448;9.984;2024-03-23T11:24:18;10.40;1.00
4308;DHT22;2167;53.448;9.984;2024-03-23T11:26:44;10.30;1.00
4308;DHT22;2167;53.448;9.984;2024-03-23T11:29:14;10.20;1.00
4308;DHT22;2167;53.448;9.984;2024-03-23T11:31:51;10.20;1.00
4308;DHT22;2167;53.448;9.984;2024-03-23T11:34:18;10.20;1.00
4308;DHT22;2167;53.448;9.984;2024-03-23T11:36:45;10.20;1.00
4308;DHT22;2167;53.448;9.984;2024-03-23T11:39:14;10.10;1.00
4308;DHT22;2167;53.448;9.984;2024-03-23T11:41:52;10.30;1.00
4308;DHT22;2167;53.448;9.984;2024-03-23T11:44:19;10.30;1.00
4308;DHT22;2167;53.448;9.984;2024-03-23T11:46:45;10.40;1.00
4308;DHT22;2167;53.448;9.984;2024-03-23T11:51:48;10.30;1.00
4308;DHT22;2167;53.448;9.984;2024-03-23T12:01:04;10.40;1.00
4308;DHT22;2167;53.448;9.984;2024-03-23T12:03:35;10.60;1.00
4308;DHT22;2167;53.448;9.984;2024-03-23T12:06:03;10.50;1.00
4308;DHT22;2167;53.448;9.984;2024-03-23T12:08:29;10.60;1.00
4308;DHT22;2167;53.448;9.984;2024-03-23T12:11:08;10.50;1.00
4308;DHT22;2167;53.448;9.984;2024-03-23T12:13:35;10.50;1.00
4308;DHT22;2167;53.448;9.984;2024-03-23T12:16:10;10.40;1.00
4308;DHT22;2167;53.448;9.984;2024-03-23T12:18:37;10.40;1.00
4308;DHT22;2167;53.448;9.984;2024-03-23T12:21:03;10.40;1.00
4308;DHT22;2167;53.448;9.984;2024-03-23T12:23:29;10.50;1.00
4308;DHT22;2167;53.448;9.984;2024-03-23T12:25:55;10.50;1.00
4308;DHT22;2167;53.448;9.984;2024-03-23T12:28:20;10.60;1.00
4308;DHT22;2167;53.448;9.984;2024-03-23T12:30:46;10.70;1.00
4308;DHT22;2167;53.448;9.984;2024-03-23T12:33:11;10.90;1.00
4308;DHT22;2167;53.448;9.984;2024-03-23T12:35:37;11.00;1.00
4308;DHT22;2167;53.448;9.984;2024-03-23T12:38:04;11.20;1.00
4308;DHT22;2167;53.448;9.984;2024-03-23T12:40:29;11.30;1.00
4308;DHT22;2167;53.448;9.984;2024-03-23T12:42:58;11.40;1.00
4308;DHT22;2167;53.448;9.984;2024-03-23T12:45:49;11.50;1.00
4308;DHT22;2167;53.448;9.984;2024-03-23T12:48:15;11.30;1.00
4308;DHT22;2167;53.448;9.984;2024-03-23T12:50:41;11.10;1.00
4308;DHT22;2167;53.448;9.984;2024-03-23T12:53:29;10.90;1.00
4308;DHT22;2167;53.448;9.984;2024-03-23T12:56:05;10.20;1.00
4308;DHT22;2167;53.448;9.984;2024-03-23T13:02:42;9.60;1.00
4308;DHT22;2167;53.448;9.984;2024-03-23T13:05:08;9.20;1.00
4308;DHT22;2167;53.448;9.984;2024-03-23T13:07:36;9.00;1.00
4308;DHT22;2167;53.448;9.984;2024-03-23T13:10:04;8.90;1.00
4308;DHT22;2167;53.448;9.984;2024-03-23T13:12:32;9.00;1.00
4308;DHT22;2167;53.448;9.984;2024-03-23T13:14:59;9.10;1.00
4308;DHT22;2167;53.448;9.984;2024-03-23T13:17:25;9.20;1.00
4308;DHT22;2167;53.448;9.984;2024-03-23T13:19:52;9.20;1.00
4308;DHT22;2167;53.448;9.984;2024-03-23T13:22:18;9.10;1.00
4308;DHT22;2167;53.448;9.984;2024-03-23T13:24:44;8.90;1.00
4308;DHT22;2167;53.448;9.984;2024-03-23T13:27:11;8.70;1.00
4308;DHT22;2167;53.448;9.984;2024-03-23T13:29:37;8.40;1.00
4308;DHT22;2167;53.448;9.984;2024-03-23T13:32:05;8.20;1.00
4308;DHT22;2167;53.448;9.984;2024-03-23T13:34:32;8.00;1.00
4308;DHT22;2167;53.448;9.984;2024-03-23T13:37:01;8.00;1.00
4308;DHT22;2167;53.448;9.984;2024-03-23T13:39:27;7.70;1.00
4308;DHT22;2167;53.448;9.984;2024-03-23T13:41:53;7.60;1.00
4308;DHT22;2167;53.448;9.984;2024-03-23T13:44:19;7.70;1.00
4308;DHT22;2167;53.448;9.984;2024-03-23T13:46:45;7.80;1.00
4308;DHT22;2167;53.448;9.984;2024-03-23T13:49:32;7.80;1.00
4308;DHT22;2167;53.448;9.984;2024-03-23T13:51:59;7.80;1.00
4308;DHT22;2167;53.448;9.984;2024-03-23T13:54:28;7.90;1.00
4308;DHT22;2167;53.448;9.984;2024-03-23T13:56:55;7.90;1.00
4308;DHT22;2167;53.448;9.984;2024-03-23T13:59:21;7.80;1.00
4308;DHT22;2167;53.448;9.984;2024-03-23T14:01:48;7.70;1.00
4308;DHT22;2167;53.448;9.984;2024-03-23T14:04:14;7.70;1.00
4308;DHT22;2167;53.448;9.984;2024-03-23T14:06:42;7.80;1.00
4308;DHT22;2167;53.448;9.984;2024-03-23T14:09:08;8.00;1.00
4308;DHT22;2167;53.448;9.984;2024-03-23T14:11:36;8.30;1.00
4308;DHT22;2167;53.448;9.984;2024-03-23T14:14:03;8.50;1.00
4308;DHT22;2167;53.448;9.984;2024-03-23T14:16:32;8.70;1.00
4308;DHT22;2167;53.448;9.984;2024-03-23T14:18:59;8.90;1.00
4308;DHT22;2167;53.448;9.984;2024-03-23T14:27:53;9.20;1.00
4308;DHT22;2167;53.448;9.984;2024-03-23T14:30:19;9.40;1.00
4308;DHT22;2167;53.448;9.984;2024-03-23T14:32:45;9.60;1.00
4308;DHT22;2167;53.448;9.984;2024-03-23T14:35:11;9.70;1.00
4308;DHT22;2167;53.448;9.984;2024-03-23T14:37:37;9.80;1.00
4308;DHT22;2167;53.448;9.984;2024-03-23T14:40:03;10.00;1.00
4308;DHT22;2167;53.448;9.984;2024-03-23T14:46:15;10.40;1.00
4308;DHT22;2167;53.448;9.984;2024-03-23T14:48:42;10.60;1.00
4308;DHT22;2167;53.448;9.984;2024-03-23T14:51:08;10.70;1.00
4308;DHT22;2167;53.448;9.984;2024-03-23T14:53:35;10.40;1.00
4308;DHT22;2167;53.448;9.984;2024-03-23T14:56:02;10.30;1.00
4308;DHT22;2167;53.448;9.984;2024-03-23T14:58:28;10.10;1.00
4308;DHT22;2167;53.448;9.984;2024-03-23T15:01:14;10.00;1.00
4308;DHT22;2167;53.448;9.984;2024-03-23T15:03:40;10.20;1.00
4308;DHT22;2167;53.448;9.984;2024-03-23T15:06:08;10.40;1.00
4308;DHT22;2167;53.448;9.984;2024-03-23T15:08:37;10.40;1.00
4308;DHT22;2167;53.448;9.984;2024-03-23T15:11:04;10.30;1.00
4308;DHT22;2167;53.448;9.984;2024-03-23T15:13:35;10.10;1.00
4308;DHT22;2167;53.448;9.984;2024-03-23T15:16:02;10.10;1.00
4308;DHT22;2167;53.448;9.984;2024-03-23T15:18:29;10.10;1.00
4308;DHT22;2167;53.448;9.984;2024-03-23T15:20:56;10.10;1.00
4308;DHT22;2167;53.448;9.984;2024-03-23T15:23:22;10.10;1.00
4308;DHT22;2167;53.448;9.984;2024-03-23T15:25:55;10.00;1.00
4308;DHT22;2167;53.448;9.984;2024-03-23T15:28:25;9.70;1.00
4308;DHT22;2167;53.448;9.984;2024-03-23T15:31:12;9.60;1.00
4308;DHT22;2167;53.448;9.984;2024-03-23T15:44:31;9.40;1.00
4308;DHT22;2167;53.448;9.984;2024-03-23T15:47:20;9.40;1.00
4308;DHT22;2167;53.448;9.984;2024-03-23T15:49:46;9.50;1.00
4308;DHT22;2167;53.448;9.984;2024-03-23T15:52:11;9.50;1.00
4308;DHT22;2167;53.448;9.984;2024-03-23T15:54:37;9.50;1.00
4308;DHT22;2167;53.448;9.984;2024-03-23T15:57:03;9.40;1.00
4308;DHT22;2167;53.448;9.984;2024-03-23T15:59:28;9.40;1.00
4308;DHT22;2167;53.448;9.984;2024-03-23T16:01:54;9.20;1.00
4308;DHT22;2167;53.448;9.984;2024-03-23T16:04:20;9.10;1.00
4308;DHT22;2167;53.448;9.984;2024-03-23T16:06:46;9.10;1.00
4308;DHT22;2167;53.448;9.984;2024-03-23T16:09:11;9.00;1.00
4308;DHT22;2167;53.448;9.984;2024-03-23T16:11:37;9.00;1.00
4308;DHT22;2167;53.448;9.984;2024-03-23T16:14:02;8.80;1.00
4308;DHT22;2167;53.448;9.984;2024-03-23T16:16:28;8.40;1.00
4308;DHT22;2167;53.448;9.984;2024-03-23T16:18:53;8.10;1.00
4308;DHT22;2167;53.448;9.984;2024-03-23T16:21:19;7.90;1.00
4308;DHT22;2167;53.448;9.984;2024-03-23T16:23:45;7.70;1.00
4308;DHT22;2167;53.448;9.984;2024-03-23T16:26:11;7.50;1.00
4308;DHT22;2167;53.448;9.984;2024-03-23T16:28:38;7.40;1.00
4308;DHT22;2167;53.448;9.984;2024-03-23T16:31:10;7.30;1.00
4308;DHT22;2167;53.448;9.984;2024-03-23T16:33:37;7.20;1.00
4308;DHT22;2167;53.448;9.984;2024-03-23T16:36:04;7.20;1.00
4308;DHT22;2167;53.448;9.984;2024-03-23T16:38:32;7.30;1.00
4308;DHT22;2167;53.448;9.984;2024-03-23T16:41:05;7.30;1.00
4308;DHT22;2167;53.448;9.984;2024-03-23T16:43:32;7.50;1.00
4308;DHT22;2167;53.448;9.984;2024-03-23T16:45:59;7.60;1.00
4308;DHT22;2167;53.448;9.984;2024-03-23T16:48:26;7.60;1.00
4308;DHT22;2167;53.448;9.984;2024-03-23T16:50:52;7.70;1.00
4308;DHT22;2167;53.448;9.984;2024-03-23T16:53:19;7.70;1.00
4308;DHT22;2167;53.448;9.984;2024-03-23T16:55:44;7.60;1.00
4308;DHT22;2167;53.448;9.984;2024-03-23T16:58:10;7.70;1.00
4308;DHT22;2167;53.448;9.984;2024-03-23T17:00:36;7.70;1.00
4308;DHT22;2167;53.448;9.984;2024-03-23T17:03:03;7.60;1.00
4308;DHT22;2167;53.448;9.984;2024-03-23T17:05:29;7.60;1.00
4308;DHT22;2167;53.448;9.984;2024-03-23T17:07:54;7.50;1.00
4308;DHT22;2167;53.448;9.984;2024-03-23T17:10:22;7.30;1.00
4308;DHT22;2167;53.448;9.984;2024-03-23T17:12:47;7.40;1.00
4308;DHT22;2167;53.448;9.984;2024-03-23T17:15:13;7.30;1.00
4308;DHT22;2167;53.448;9.984;2024-03-23T17:17:40;7.20;1.00
4308;DHT22;2167;53.448;9.984;2024-03-23T17:20:06;7.20;1.00
4308;DHT22;2167;53.448;9.984;2024-03-23T17:22:32;7.10;1.00
4308;DHT22;2167;53.448;9.984;2024-03-23T17:24:58;7.00;1.00
4308;DHT22;2167;53.448;9.984;2024-03-23T17:27:23;7.00;1.00
4308;DHT22;2167;53.448;9.984;2024-03-23T17:29:48;7.00;1.00
4308;DHT22;2167;53.448;9.984;2024-03-23T17:32:14;6.90;1.00
4308;DHT22;2167;53.448;9.984;2024-03-23T17:34:40;6.90;1.00
4308;DHT22;2167;53.448;9.984;2024-03-23T17:37:06;6.80;1.00
4308;DHT22;2167;53.448;9.984;2024-03-23T17:39:31;6.80;1.00
4308;DHT22;2167;53.448;9.984;2024-03-23T17:41:57;6.70;1.00
4308;DHT22;2167;53.448;9.984;2024-03-23T17:44:23;6.70;1.00
4308;DHT22;2167;53.448;9.984;2024-03-23T17:46:49;6.70;1.00
4308;DHT22;2167;53.448;9.984;2024-03-23T17:49:14;6.60;1.00
4308;DHT22;2167;53.448;9.984;2024-03-23T17:51:41;6.60;1.00
4308;DHT22;2167;53.448;9.984;2024-03-23T17:54:07;6.60;1.00
4308;DHT22;2167;53.448;9.984;2024-03-23T17:56:33;6.60;1.00
4308;DHT22;2167;53.448;9.984;2024-03-23T17:58:58;6.60;1.00
4308;DHT22;2167;53.448;9.984;2024-03-23T18:01:24;6.60;1.00
4308;DHT22;2167;53.448;9.984;2024-03-23T18:03:53;6.60;1.00
4308;DHT22;2167;53.448;9.984;2024-03-23T18:06:19;6.50;1.00
4308;DHT22;2167;53.448;9.984;2024-03-23T18:08:46;6.40;1.00
4308;DHT22;2167;53.448;9.984;2024-03-23T18:11:12;6.40;1.00
4308;DHT22;2167;53.448;9.984;2024-03-23T18:13:38;6.30;1.00
4308;DHT22;2167;53.448;9.984;2024-03-23T18:16:04;6.20;1.00
4308;DHT22;2167;53.448;9.984;2024-03-23T18:18:30;6.20;1.00
4308;DHT22;2167;53.448;9.984;2024-03-23T18:20:56;6.10;1.00
4308;DHT22;2167;53.448;9.984;2024-03-23T18:23:21;6.00;1.00
4308;DHT22;2167;53.448;9.984;2024-03-23T18:25:53;5.90;1.00
4308;DHT22;2167;53.448;9.984;2024-03-23T18:28:21;5.80;1.00
4308;DHT22;2167;53.448;9.984;2024-03-23T18:30:59;5.70;1.00
4308;DHT22;2167;53.448;9.984;2024-03-23T18:33:25;5.70;1.00
4308;DHT22;2167;53.448;9.984;2024-03-23T18:35:52;5.60;1.00
4308;DHT22;2167;53.448;9.984;2024-03-23T18:38:18;5.70;1.00
4308;DHT22;2167;53.448;9.984;2024-03-23T18:40:48;5.70;1.00
4308;DHT22;2167;53.448;9.984;2024-03-23T18:43:14;5.60;1.00
4308;DHT22;2167;53.448;9.984;2024-03-23T18:45:47;5.60;1.00
4308;DHT22;2167;53.448;9.984;2024-03-23T18:48:13;5.50;1.00
4308;DHT22;2167;53.448;9.984;2024-03-23T18:50:38;5.40;1.00
4308;DHT22;2167;53.448;9.984;2024-03-23T18:53:04;5.40;1.00
4308;DHT22;2167;53.448;9.984;2024-03-23T18:55:30;5.40;1.00
4308;DHT22;2167;53.448;9.984;2024-03-23T18:57:55;5.40;1.00
4308;DHT22;2167;53.448;9.984;2024-03-23T19:00:24;5.40;1.00